Time;durP1;ratioP1;P1;durP2;ratioP2;P2;SDS_P1;SDS_P2;PMS_P1;PMS_P2;Temp;Humidity;BMP_temperature;BMP_pressure;BME280_temperature;BME280_humidity;BME280_pressure;Samples;Min_cycle;Max_cycle;Signal;HPM_P1;HPM_P2
2023/09/10 00:02:44;;;;;;;52.50;31.48;;;;;;;;;;8437965;23;20061;-94
2023/09/10 00:06:53;;;;;;;50.03;28.88;;;;;;;;;;8442848;28;20086;-93
2023/09/10 00:11:04;;;;;;;54.72;29.00;;;;;;;;;;8406057;28;20128;-94
2023/09/10 00:15:08;;;;;;;54.80;30.15;;;;;;;;;;8405018;28;20036;-93
2023/09/10 00:19:31;;;;;;;49.83;29.88;;;;;;;;;;8402819;28;20463;-94
2023/09/10 00:23:38;;;;;;;55.92;31.10;;;;;;;;;;8386938;28;20044;-93
2023/09/10 00:32:43;;;;;;;53.28;30.73;;;;;;;;;;8341790;28;20072;-93
2023/09/10 00:37:03;;;;;;;47.70;28.55;;;;;;;;;;8385587;28;20053;-93
2023/09/10 00:41:12;;;;;;;46.58;27.33;;;;;;;;;;8416389;28;20041;-94
2023/09/10 00:45:16;;;;;;;55.78;29.60;;;;;;;;;;8415446;28;20188;-92
2023/09/10 00:50:28;;;;;;;50.75;27.80;;;;;;;;;;8394734;28;20048;-95
2023/09/10 00:54:45;;;;;;;50.85;27.65;;;;;;;;;;8255102;28;20050;-94
2023/09/10 00:59:03;;;;;;;51.85;30.25;;;;;;;;;;8272121;28;20148;-95
2023/09/10 01:07:27;;;;;;;52.88;28.05;;;;;;;;;;8295741;22;20058;-94
2023/09/10 01:17:01;;;;;;;56.70;29.70;;;;;;;;;;8308629;28;20065;-92
2023/09/10 01:21:49;;;;;;;55.17;30.45;;;;;;;;;;8316004;28;20133;-94
2023/09/10 01:30:48;;;;;;;61.08;30.55;;;;;;;;;;8289431;28;20074;-92
2023/09/10 01:39:52;;;;;;;53.70;27.40;;;;;;;;;;8242110;28;20070;-92
2023/09/10 01:44:05;;;;;;;50.78;28.00;;;;;;;;;;8234707;28;20050;-93
2023/09/10 01:48:08;;;;;;;56.15;30.13;;;;;;;;;;8219358;28;20051;-94
2023/09/10 01:52:17;;;;;;;57.35;31.42;;;;;;;;;;8310301;28;20152;-94
2023/09/10 01:56:33;;;;;;;54.88;28.48;;;;;;;;;;8309148;28;20137;-93
2023/09/10 02:00:44;;;;;;;53.25;28.50;;;;;;;;;;8307073;28;20104;-96
2023/09/10 02:04:50;;;;;;;63.80;31.77;;;;;;;;;;8427350;23;20076;-93
2023/09/10 02:08:58;;;;;;;66.13;30.33;;;;;;;;;;8448290;28;20044;-96
2023/09/10 02:13:17;;;;;;;60.70;31.67;;;;;;;;;;8454315;28;20043;-94
2023/09/10 02:17:28;;;;;;;62.20;30.70;;;;;;;;;;8431003;28;20067;-92
2023/09/10 02:25:48;;;;;;;59.25;30.13;;;;;;;;;;8444693;28;20059;-94
2023/09/10 02:29:51;;;;;;;48.33;26.52;;;;;;;;;;8436220;28;20074;-93
2023/09/10 02:34:00;;;;;;;45.83;27.98;;;;;;;;;;8432133;28;20105;-92
2023/09/10 02:38:13;;;;;;;51.60;27.48;;;;;;;;;;8441111;28;20070;-93
2023/09/10 02:42:17;;;;;;;52.55;28.30;;;;;;;;;;8428052;28;20067;-94
2023/09/10 02:46:27;;;;;;;47.80;27.23;;;;;;;;;;8433098;28;20066;-94
2023/09/10 02:50:38;;;;;;;47.25;25.60;;;;;;;;;;8445605;28;20050;-94
2023/09/10 02:54:52;;;;;;;45.22;25.90;;;;;;;;;;8448002;28;20051;-95
2023/09/10 02:58:55;;;;;;;47.63;26.45;;;;;;;;;;8445420;28;20036;-93
2023/09/10 03:03:09;;;;;;;50.13;25.83;;;;;;;;;;8438990;28;20060;-96
2023/09/10 03:07:13;;;;;;;52.15;26.10;;;;;;;;;;8440388;28;20040;-93
2023/09/10 03:11:17;;;;;;;48.83;27.50;;;;;;;;;;8437840;28;20079;-95
2023/09/10 03:19:49;;;;;;;56.33;30.48;;;;;;;;;;8443751;22;20059;-94
2023/09/10 03:23:54;;;;;;;56.80;27.67;;;;;;;;;;8403429;28;20466;-95
2023/09/10 03:28:07;;;;;;;52.50;28.15;;;;;;;;;;8405493;28;20048;-95
2023/09/10 03:40:27;;;;;;;50.13;27.50;;;;;;;;;;8421076;28;20124;-96
2023/09/10 03:44:32;;;;;;;55.85;26.63;;;;;;;;;;8419599;28;20046;-94
2023/09/10 03:48:46;;;;;;;53.85;28.52;;;;;;;;;;8405444;28;20072;-94
2023/09/10 03:52:52;;;;;;;53.53;28.05;;;;;;;;;;8404373;28;20052;-92
2023/09/10 03:56:56;;;;;;;50.75;27.85;;;;;;;;;;8418632;28;20452;-92
2023/09/10 04:00:59;;;;;;;58.38;28.10;;;;;;;;;;8426679;28;20063;-94
2023/09/10 04:05:10;;;;;;;55.45;28.05;;;;;;;;;;8426948;28;20531;-95
2023/09/10 04:09:19;;;;;;;64.85;29.70;;;;;;;;;;8412655;28;20076;-91
2023/09/10 04:13:33;;;;;;;61.95;30.85;;;;;;;;;;8422401;28;20524;-94
2023/09/10 04:17:45;;;;;;;58.00;26.88;;;;;;;;;;8424092;28;20387;-94
2023/09/10 04:21:54;;;;;;;50.97;27.08;;;;;;;;;;8430741;28;20042;-95
2023/09/10 04:25:58;;;;;;;57.38;29.45;;;;;;;;;;8438278;28;20052;-92
2023/09/10 04:30:11;;;;;;;54.30;28.60;;;;;;;;;;8425471;28;20046;-94
2023/09/10 04:34:15;;;;;;;60.83;28.00;;;;;;;;;;8415414;28;20484;-91
2023/09/10 04:38:18;;;;;;;70.88;32.47;;;;;;;;;;8393090;28;20057;-93
2023/09/10 04:42:27;;;;;;;54.97;29.20;;;;;;;;;;8369912;28;20056;-94
2023/09/10 04:46:47;;;;;;;99.20;41.95;;;;;;;;;;8344350;28;20037;-93
2023/09/10 04:50:50;;;;;;;79.82;39.22;;;;;;;;;;8358873;28;20601;-93
2023/09/10 04:55:05;;;;;;;163.98;86.05;;;;;;;;;;8365339;28;20104;-93
2023/09/10 04:59:08;;;;;;;98.40;57.60;;;;;;;;;;8369379;28;20114;-94
2023/09/10 05:03:20;;;;;;;115.63;65.82;;;;;;;;;;8382640;28;20131;-93
2023/09/10 05:07:25;;;;;;;102.13;65.20;;;;;;;;;;8488291;23;20056;-93
2023/09/10 05:11:29;;;;;;;98.55;63.28;;;;;;;;;;8427460;28;20059;-95
2023/09/10 05:15:32;;;;;;;89.43;50.50;;;;;;;;;;8438878;28;20036;-94
2023/09/10 05:19:40;;;;;;;57.33;39.30;;;;;;;;;;8415994;28;20100;-91
2023/09/10 05:23:44;;;;;;;41.40;27.10;;;;;;;;;;8404294;28;20060;-95
2023/09/10 05:27:48;;;;;;;35.67;23.92;;;;;;;;;;8423647;28;20048;-92
2023/09/10 05:31:51;;;;;;;49.40;34.25;;;;;;;;;;8398839;28;20147;-92
2023/09/10 05:40:23;;;;;;;16.50;13.40;;;;;;;;;;8461463;23;20908;-92
2023/09/10 05:44:26;;;;;;;14.27;11.43;;;;;;;;;;8372266;28;20120;-93
2023/09/10 05:48:29;;;;;;;16.48;13.73;;;;;;;;;;8374928;28;20124;-93
2023/09/10 05:52:34;;;;;;;13.30;9.07;;;;;;;;;;8400930;28;20496;-94
2023/09/10 05:56:37;;;;;;;14.00;9.07;;;;;;;;;;8386699;28;20511;-92
2023/09/10 06:00:40;;;;;;;10.25;8.27;;;;;;;;;;8382147;28;20053;-92
2023/09/10 06:04:43;;;;;;;10.45;7.60;;;;;;;;;;8398693;28;20115;-91
2023/09/10 06:08:48;;;;;;;10.77;8.40;;;;;;;;;;8384079;28;20068;-92
2023/09/10 06:12:51;;;;;;;11.98;7.70;;;;;;;;;;8390434;28;20079;-90
2023/09/10 06:16:54;;;;;;;14.48;9.52;;;;;;;;;;8378794;28;20048;-92
2023/09/10 06:20:57;;;;;;;10.85;7.53;;;;;;;;;;8381765;28;20492;-92
2023/09/10 06:25:11;;;;;;;11.57;7.22;;;;;;;;;;8397752;28;20079;-94
2023/09/10 06:29:14;;;;;;;29.92;16.35;;;;;;;;;;8385027;28;20496;-92
2023/09/10 06:33:17;;;;;;;28.00;14.55;;;;;;;;;;8397874;28;20063;-91
2023/09/10 06:37:20;;;;;;;15.93;10.13;;;;;;;;;;8397511;28;20123;-92
2023/09/10 06:41:28;;;;;;;16.10;10.48;;;;;;;;;;8360911;28;20077;-92
2023/09/10 06:45:31;;;;;;;16.10;11.55;;;;;;;;;;8364731;28;20206;-92
2023/09/10 06:49:34;;;;;;;12.80;9.50;;;;;;;;;;8365631;28;20127;-92
2023/09/10 06:53:37;;;;;;;13.02;9.50;;;;;;;;;;8350842;28;20385;-92
2023/09/10 06:57:42;;;;;;;12.00;7.50;;;;;;;;;;8348728;28;20136;-91
2023/09/10 07:01:45;;;;;;;9.65;6.50;;;;;;;;;;8351608;28;20069;-92
2023/09/10 07:05:48;;;;;;;8.82;6.50;;;;;;;;;;8351580;28;20552;-92
2023/09/10 07:09:51;;;;;;;9.23;6.50;;;;;;;;;;8363089;28;20166;-91
2023/09/10 07:14:06;;;;;;;9.07;5.63;;;;;;;;;;8361914;28;20045;-93
2023/09/10 07:18:09;;;;;;;8.75;5.97;;;;;;;;;;8349896;28;20087;-92
2023/09/10 07:22:20;;;;;;;11.60;5.70;;;;;;;;;;8345183;28;20046;-91
2023/09/10 07:26:23;;;;;;;8.85;5.78;;;;;;;;;;8356094;28;20467;-90
2023/09/10 07:35:04;;;;;;;12.30;6.68;;;;;;;;;;8344353;28;20425;-91
2023/09/10 07:39:07;;;;;;;9.32;6.45;;;;;;;;;;8342895;28;20049;-90
2023/09/10 07:43:11;;;;;;;8.93;5.68;;;;;;;;;;8360220;23;20053;-90
2023/09/10 07:47:16;;;;;;;8.98;5.40;;;;;;;;;;8362299;28;20045;-89
2023/09/10 07:51:19;;;;;;;7.75;5.45;;;;;;;;;;8362664;28;20166;-90
2023/09/10 07:55:22;;;;;;;8.15;5.25;;;;;;;;;;8362178;28;20135;-90
2023/09/10 07:59:27;;;;;;;9.35;5.50;;;;;;;;;;8349163;28;20049;-89
2023/09/10 08:03:32;;;;;;;8.93;6.05;;;;;;;;;;8362877;28;20048;-89
2023/09/10 08:07:35;;;;;;;8.63;5.20;;;;;;;;;;8338705;28;20061;-89
2023/09/10 08:11:38;;;;;;;10.23;6.45;;;;;;;;;;8376428;28;20080;-89
2023/09/10 08:15:41;;;;;;;10.10;5.35;;;;;;;;;;8362609;28;20047;-88
2023/09/10 08:19:45;;;;;;;7.93;5.53;;;;;;;;;;8344841;28;20495;-89
2023/09/10 08:23:48;;;;;;;8.85;5.60;;;;;;;;;;8362136;28;20381;-90
2023/09/10 08:27:52;;;;;;;9.30;5.45;;;;;;;;;;8344881;28;20053;-89
2023/09/10 08:31:55;;;;;;;12.27;5.20;;;;;;;;;;8362807;28;20504;-90
2023/09/10 08:36:01;;;;;;;9.60;5.40;;;;;;;;;;8362976;28;20132;-89
2023/09/10 08:40:08;;;;;;;8.75;5.47;;;;;;;;;;8345587;28;20053;-90
2023/09/10 08:44:17;;;;;;;10.48;5.40;;;;;;;;;;8342752;28;20068;-90
2023/09/10 08:48:21;;;;;;;11.97;5.30;;;;;;;;;;8363001;28;20044;-91
2023/09/10 08:52:27;;;;;;;10.00;5.07;;;;;;;;;;8380744;28;20359;-90
2023/09/10 08:56:30;;;;;;;11.25;5.53;;;;;;;;;;8361723;28;20056;-89
2023/09/10 09:00:34;;;;;;;10.98;5.35;;;;;;;;;;8369326;28;20049;-89
2023/09/10 09:04:37;;;;;;;15.65;5.97;;;;;;;;;;8366807;28;20114;-88
2023/09/10 09:08:52;;;;;;;13.50;5.88;;;;;;;;;;8367268;28;20489;-89
2023/09/10 09:12:58;;;;;;;11.85;5.82;;;;;;;;;;8381927;28;20047;-89
2023/09/10 09:17:02;;;;;;;9.88;5.68;;;;;;;;;;8341112;28;20056;-88
2023/09/10 09:21:12;;;;;;;15.07;5.63;;;;;;;;;;8368071;28;20048;-89
2023/09/10 09:25:17;;;;;;;16.17;6.15;;;;;;;;;;8350778;28;20045;-90
2023/09/10 09:29:21;;;;;;;9.07;5.80;;;;;;;;;;8360292;28;20463;-90
2023/09/10 09:33:24;;;;;;;15.60;6.40;;;;;;;;;;8380435;28;20063;-89
2023/09/10 09:37:27;;;;;;;16.73;6.47;;;;;;;;;;8339705;28;20465;-90
2023/09/10 09:41:35;;;;;;;12.63;5.75;;;;;;;;;;8331867;28;20131;-90
2023/09/10 09:46:07;;;;;;;10.70;5.63;;;;;;;;;;8374868;22;20061;-89
2023/09/10 09:50:17;;;;;;;11.70;6.18;;;;;;;;;;8350481;28;20056;-89
2023/09/10 09:54:48;;;;;;;11.93;5.72;;;;;;;;;;8340277;28;20048;-90
2023/09/10 09:58:57;;;;;;;10.98;5.43;;;;;;;;;;8346644;28;20081;-90
2023/09/10 10:03:10;;;;;;;13.18;5.85;;;;;;;;;;8354461;28;20091;-92
2023/09/10 10:07:52;;;;;;;10.20;5.10;;;;;;;;;;8342570;28;20053;-89
2023/09/10 10:12:13;;;;;;;11.13;5.43;;;;;;;;;;8348402;28;20676;-89
2023/09/10 10:16:31;;;;;;;15.18;5.70;;;;;;;;;;8336744;28;20091;-89
2023/09/10 10:20:38;;;;;;;12.20;5.57;;;;;;;;;;8343155;28;20052;-90
2023/09/10 10:25:02;;;;;;;16.25;6.18;;;;;;;;;;8331047;28;20044;-89
2023/09/10 10:29:15;;;;;;;15.85;6.30;;;;;;;;;;8354769;28;20041;-89
2023/09/10 10:33:32;;;;;;;12.73;5.80;;;;;;;;;;8346737;28;20045;-91
2023/09/10 10:38:01;;;;;;;12.02;6.43;;;;;;;;;;8344494;28;20041;-89
2023/09/10 10:46:38;;;;;;;16.75;9.00;;;;;;;;;;8316152;28;20050;-90
2023/09/10 10:50:54;;;;;;;11.48;5.43;;;;;;;;;;8308510;28;20045;-89
2023/09/10 10:54:58;;;;;;;15.52;7.18;;;;;;;;;;8316715;28;20646;-90
2023/09/10 10:59:02;;;;;;;13.02;7.03;;;;;;;;;;8319314;28;20053;-90
2023/09/10 11:03:15;;;;;;;16.42;6.95;;;;;;;;;;8324997;28;20051;-89
2023/09/10 11:07:22;;;;;;;10.65;7.07;;;;;;;;;;8320562;28;20077;-89
2023/09/10 11:11:48;;;;;;;13.40;7.10;;;;;;;;;;8312281;28;20046;-89
2023/09/10 11:16:21;;;;;;;12.15;6.75;;;;;;;;;;8344381;28;20486;-89
2023/09/10 11:20:52;;;;;;;11.15;6.80;;;;;;;;;;8304890;28;20057;-89
2023/09/10 11:25:06;;;;;;;12.75;6.28;;;;;;;;;;8342839;28;20063;-89
2023/09/10 11:29:09;;;;;;;11.43;6.22;;;;;;;;;;8349757;28;20045;-90
2023/09/10 11:33:32;;;;;;;11.30;5.90;;;;;;;;;;8347003;28;20056;-90
2023/09/10 11:37:37;;;;;;;13.27;6.63;;;;;;;;;;8325488;28;20124;-89
2023/09/10 11:41:46;;;;;;;14.50;6.22;;;;;;;;;;8344267;28;20078;-88
2023/09/10 11:45:49;;;;;;;10.27;5.88;;;;;;;;;;8377747;28;20069;-88
2023/09/10 11:50:01;;;;;;;9.55;5.43;;;;;;;;;;8353949;28;20037;-89
2023/09/10 11:54:05;;;;;;;11.10;6.22;;;;;;;;;;8387208;28;20100;-89
2023/09/10 11:58:09;;;;;;;9.77;5.70;;;;;;;;;;8368779;28;20119;-90
2023/09/10 12:02:13;;;;;;;11.85;5.63;;;;;;;;;;8362511;28;20048;-90
2023/09/10 12:06:16;;;;;;;10.02;5.25;;;;;;;;;;8372372;28;20045;-90
2023/09/10 12:14:47;;;;;;;19.60;6.57;;;;;;;;;;8389869;22;20182;-89
2023/09/10 12:18:52;;;;;;;12.70;5.80;;;;;;;;;;8376206;28;20433;-89
2023/09/10 12:22:55;;;;;;;13.18;5.55;;;;;;;;;;8367102;28;20551;-90
2023/09/10 12:26:59;;;;;;;12.10;5.13;;;;;;;;;;8368117;28;20132;-91
2023/09/10 12:31:03;;;;;;;8.90;5.15;;;;;;;;;;8385261;28;20778;-89
2023/09/10 12:35:07;;;;;;;12.18;5.18;;;;;;;;;;8373417;28;20040;-89
2023/09/10 12:39:19;;;;;;;10.07;5.55;;;;;;;;;;8377322;28;20040;-89
2023/09/10 12:43:23;;;;;;;9.55;4.97;;;;;;;;;;8387508;28;20047;-91
2023/09/10 12:47:28;;;;;;;11.70;5.30;;;;;;;;;;8361456;28;20044;-90
2023/09/10 12:51:31;;;;;;;10.93;5.30;;;;;;;;;;8398562;28;20404;-89
2023/09/10 12:55:35;;;;;;;11.60;5.68;;;;;;;;;;8379648;28;20083;-90
2023/09/10 12:59:38;;;;;;;9.95;5.90;;;;;;;;;;8381919;28;20064;-89
2023/09/10 13:03:45;;;;;;;10.73;5.30;;;;;;;;;;8377858;28;20441;-90
2023/09/10 13:07:50;;;;;;;9.50;5.50;;;;;;;;;;8364550;28;20489;-89
2023/09/10 13:11:54;;;;;;;10.07;5.13;;;;;;;;;;8368161;28;20385;-89
2023/09/10 13:15:58;;;;;;;9.95;5.00;;;;;;;;;;8347773;28;20059;-88
2023/09/10 13:20:04;;;;;;;8.88;5.10;;;;;;;;;;8364721;28;20045;-88
2023/09/10 13:24:08;;;;;;;11.32;5.68;;;;;;;;;;8364999;28;20048;-89
2023/09/10 13:28:12;;;;;;;10.10;5.22;;;;;;;;;;8365237;28;20040;-88
2023/09/10 13:32:15;;;;;;;10.85;5.72;;;;;;;;;;8348239;28;20049;-89
2023/09/10 13:36:21;;;;;;;8.63;4.90;;;;;;;;;;8364859;28;20049;-88
2023/09/10 13:40:27;;;;;;;9.02;5.18;;;;;;;;;;8365626;28;20392;-89
2023/09/10 13:44:31;;;;;;;10.45;5.03;;;;;;;;;;8348919;28;20489;-90
2023/09/10 13:48:34;;;;;;;7.95;5.20;;;;;;;;;;8364844;28;20443;-90
2023/09/10 13:52:40;;;;;;;10.57;5.78;;;;;;;;;;8365086;28;20409;-89
2023/09/10 13:56:45;;;;;;;11.68;4.80;;;;;;;;;;8348509;28;20063;-89
2023/09/10 14:00:49;;;;;;;9.55;5.40;;;;;;;;;;8324414;28;20057;-90
2023/09/10 14:04:53;;;;;;;7.85;5.25;;;;;;;;;;8365247;28;20510;-89
2023/09/10 14:09:01;;;;;;;10.35;5.07;;;;;;;;;;8354728;28;20135;-90
2023/09/10 14:13:04;;;;;;;7.88;5.13;;;;;;;;;;8363390;28;20061;-88
2023/09/10 14:17:08;;;;;;;9.35;5.57;;;;;;;;;;8364719;28;20416;-89
2023/09/10 14:21:12;;;;;;;10.18;5.07;;;;;;;;;;8347255;28;20186;-89
2023/09/10 14:25:17;;;;;;;8.10;5.28;;;;;;;;;;8364232;28;20119;-89
2023/09/10 14:29:21;;;;;;;10.88;5.47;;;;;;;;;;8340488;28;20489;-89
2023/09/10 14:33:28;;;;;;;9.27;5.38;;;;;;;;;;8350276;28;20041;-89
2023/09/10 14:37:33;;;;;;;12.27;5.47;;;;;;;;;;8345886;28;20056;-89
2023/09/10 14:41:39;;;;;;;10.98;5.32;;;;;;;;;;8346789;28;20049;-89
2023/09/10 14:45:42;;;;;;;11.07;5.60;;;;;;;;;;8363020;28;20049;-89
2023/09/10 14:49:46;;;;;;;9.68;5.50;;;;;;;;;;8360925;28;20456;-89
2023/09/10 14:53:50;;;;;;;9.60;5.65;;;;;;;;;;8329555;28;20049;-89
2023/09/10 14:57:55;;;;;;;10.27;5.53;;;;;;;;;;8361893;28;20037;-89
2023/09/10 15:02:00;;;;;;;8.65;5.53;;;;;;;;;;8351884;28;20055;-88
2023/09/10 15:06:06;;;;;;;11.50;5.63;;;;;;;;;;8369586;28;20044;-88
2023/09/10 15:10:10;;;;;;;12.90;6.20;;;;;;;;;;8346033;28;20052;-89
2023/09/10 15:14:18;;;;;;;12.00;6.00;;;;;;;;;;8343918;28;20048;-90
2023/09/10 15:18:23;;;;;;;10.55;6.35;;;;;;;;;;8344759;28;20073;-90
2023/09/10 15:22:27;;;;;;;9.32;5.70;;;;;;;;;;8363402;28;20045;-89
2023/09/10 15:26:31;;;;;;;13.50;6.03;;;;;;;;;;8370412;28;20123;-90
2023/09/10 15:30:36;;;;;;;11.70;6.20;;;;;;;;;;8313880;28;20147;-90
2023/09/10 15:34:46;;;;;;;15.55;6.55;;;;;;;;;;8338718;28;20374;-89
2023/09/10 15:38:57;;;;;;;10.70;6.28;;;;;;;;;;8329157;28;20061;-91
2023/09/10 15:43:00;;;;;;;;;;;;;;;;;;8355655;28;20053;-89
2023/09/10 15:47:10;;;;;;;10.40;6.00;;;;;;;;;;8341105;28;19931;-87
2023/09/10 15:51:15;;;;;;;10.67;6.77;;;;;;;;;;8337357;28;20049;-89
2023/09/10 15:55:58;;;;;;;10.93;6.20;;;;;;;;;;8302064;28;20057;-90
2023/09/10 16:00:14;;;;;;;12.68;6.00;;;;;;;;;;8361289;28;20049;-90
2023/09/10 16:04:23;;;;;;;10.57;6.13;;;;;;;;;;8356727;28;20044;-89
2023/09/10 16:08:29;;;;;;;19.90;6.38;;;;;;;;;;8350271;28;20076;-91
2023/09/10 16:12:35;;;;;;;10.75;5.90;;;;;;;;;;8314145;28;20064;-91
2023/09/10 16:16:42;;;;;;;11.85;6.35;;;;;;;;;;8325458;28;20115;-91
2023/09/10 16:20:50;;;;;;;11.38;6.30;;;;;;;;;;8325571;28;20049;-90
2023/09/10 16:24:54;;;;;;;10.68;6.43;;;;;;;;;;8320505;28;20056;-91
2023/09/10 16:28:58;;;;;;;15.98;7.22;;;;;;;;;;8344558;28;20132;-90
2023/09/10 16:33:06;;;;;;;13.50;7.18;;;;;;;;;;8316347;28;20119;-90
2023/09/10 16:37:14;;;;;;;13.68;6.50;;;;;;;;;;8346730;28;20144;-89
2023/09/10 16:41:20;;;;;;;12.57;8.20;;;;;;;;;;8336394;28;20053;-91
2023/09/10 16:45:24;;;;;;;14.68;9.77;;;;;;;;;;8333559;28;20086;-91
2023/09/10 16:49:29;;;;;;;46.05;22.38;;;;;;;;;;8325294;28;20057;-91
2023/09/10 16:53:33;;;;;;;135.55;72.80;;;;;;;;;;8342340;28;20053;-91
2023/09/10 16:57:37;;;;;;;318.73;149.98;;;;;;;;;;8341722;28;20057;-90
2023/09/10 17:01:41;;;;;;;56.60;32.85;;;;;;;;;;8347136;28;20048;-90
2023/09/10 17:05:46;;;;;;;77.47;38.78;;;;;;;;;;8334092;28;20162;-91
2023/09/10 17:09:53;;;;;;;169.93;82.15;;;;;;;;;;8343532;28;20048;-89
2023/09/10 17:13:58;;;;;;;55.60;31.90;;;;;;;;;;8327400;28;20053;-89
2023/09/10 17:18:04;;;;;;;29.98;18.77;;;;;;;;;;8336187;28;20501;-90
2023/09/10 17:22:09;;;;;;;121.28;63.55;;;;;;;;;;8332059;28;20482;-91
2023/09/10 17:26:18;;;;;;;125.40;64.53;;;;;;;;;;8325012;28;20128;-91
2023/09/10 17:30:21;;;;;;;129.63;52.58;;;;;;;;;;8329776;28;20045;-90
2023/09/10 17:34:25;;;;;;;37.60;18.15;;;;;;;;;;8348341;28;20120;-90
2023/09/10 17:38:33;;;;;;;52.42;28.20;;;;;;;;;;8345636;23;20057;-91
2023/09/10 17:42:38;;;;;;;21.25;13.38;;;;;;;;;;8356375;28;20048;-91
2023/09/10 17:46:42;;;;;;;30.38;15.55;;;;;;;;;;8318744;28;20065;-91
2023/09/10 17:50:47;;;;;;;198.80;96.35;;;;;;;;;;8335979;28;20723;-90
2023/09/10 17:54:53;;;;;;;37.88;21.55;;;;;;;;;;8309354;28;20405;-93
2023/09/10 17:59:01;;;;;;;17.92;11.95;;;;;;;;;;8330962;28;20086;-91
2023/09/10 18:03:05;;;;;;;17.77;12.00;;;;;;;;;;8514106;23;20052;-91
2023/09/10 18:07:08;;;;;;;16.13;12.35;;;;;;;;;;8471507;23;20052;-92
2023/09/10 18:11:17;;;;;;;26.70;14.27;;;;;;;;;;8382101;23;20440;-91
2023/09/10 18:15:26;;;;;;;18.90;12.23;;;;;;;;;;8348620;28;20045;-91
2023/09/10 18:19:30;;;;;;;22.08;11.98;;;;;;;;;;8355902;28;20461;-91
2023/09/10 18:32:11;;;;;;;24.90;14.18;;;;;;;;;;6763174;26;20047;-92
2023/09/10 18:36:17;;;;;;;24.40;13.10;;;;;;;;;;8484667;27;20113;-91
2023/09/10 18:40:22;;;;;;;18.17;13.05;;;;;;;;;;8468453;27;20074;-91
2023/09/10 18:44:28;;;;;;;19.20;12.95;;;;;;;;;;8485613;27;20043;-91
2023/09/10 18:48:38;;;;;;;23.45;13.40;;;;;;;;;;8486363;27;20101;-91
2023/09/10 18:52:43;;;;;;;35.58;17.77;;;;;;;;;;8479395;27;20138;-91
2023/09/10 18:56:57;;;;;;;27.05;15.75;;;;;;;;;;8478389;27;20059;-89
2023/09/10 19:01:20;;;;;;;19.55;13.40;;;;;;;;;;8481265;27;20421;-91
2023/09/10 19:05:27;;;;;;;21.67;13.25;;;;;;;;;;8495807;27;20059;-93
2023/09/10 19:09:41;;;;;;;28.45;14.15;;;;;;;;;;8461016;27;20055;-91
2023/09/10 19:13:45;;;;;;;27.25;13.25;;;;;;;;;;8476235;27;20052;-91
2023/09/10 19:17:53;;;;;;;26.55;14.02;;;;;;;;;;8448094;23;20056;-92
2023/09/10 19:22:06;;;;;;;23.83;15.67;;;;;;;;;;8361645;28;20048;-93
2023/09/10 19:26:10;;;;;;;24.67;14.93;;;;;;;;;;8416345;28;20050;-91
2023/09/10 19:30:17;;;;;;;25.05;14.68;;;;;;;;;;8411058;28;20044;-91
2023/09/10 19:34:23;;;;;;;27.50;15.00;;;;;;;;;;8385948;28;20147;-92
2023/09/10 19:38:31;;;;;;;23.02;13.15;;;;;;;;;;8388735;28;20549;-93
2023/09/10 19:42:38;;;;;;;24.25;14.65;;;;;;;;;;8407632;28;20133;-91
2023/09/10 19:46:43;;;;;;;23.08;14.48;;;;;;;;;;8421354;28;20048;-92
2023/09/10 19:51:21;;;;;;;25.70;15.07;;;;;;;;;;8392853;28;20056;-92
2023/09/10 19:55:27;;;;;;;25.65;15.27;;;;;;;;;;8409687;28;20187;-92
2023/09/10 19:59:33;;;;;;;23.88;15.13;;;;;;;;;;8406564;28;20060;-93
2023/09/10 20:03:37;;;;;;;27.02;15.25;;;;;;;;;;8430569;28;20419;-92
2023/09/10 20:12:10;;;;;;;25.17;14.30;;;;;;;;;;8410790;28;20182;-92
2023/09/10 20:16:16;;;;;;;29.50;15.33;;;;;;;;;;8422082;28;20040;-93
2023/09/10 20:20:21;;;;;;;29.17;16.77;;;;;;;;;;8404516;28;20074;-93
2023/09/10 20:24:25;;;;;;;28.98;15.02;;;;;;;;;;8392600;28;20127;-91
2023/09/10 20:28:30;;;;;;;27.98;14.43;;;;;;;;;;8410515;28;20056;-91
2023/09/10 20:32:36;;;;;;;28.75;15.80;;;;;;;;;;8410632;28;20095;-92
2023/09/10 20:36:57;;;;;;;35.88;16.75;;;;;;;;;;8410359;28;20123;-92
2023/09/10 20:41:02;;;;;;;28.33;16.97;;;;;;;;;;8410773;28;20074;-90
2023/09/10 20:45:11;;;;;;;25.52;15.30;;;;;;;;;;8423467;28;20048;-93
2023/09/10 20:49:19;;;;;;;28.20;15.57;;;;;;;;;;8422566;28;20054;-91
2023/09/10 20:53:22;;;;;;;26.20;15.77;;;;;;;;;;8398379;28;20464;-92
2023/09/10 20:57:25;;;;;;;28.23;15.85;;;;;;;;;;8436043;28;20115;-93
2023/09/10 21:01:30;;;;;;;27.52;15.07;;;;;;;;;;8422670;28;20032;-92
2023/09/10 21:05:33;;;;;;;24.38;14.75;;;;;;;;;;8399728;28;20060;-92
2023/09/10 21:09:42;;;;;;;23.70;15.30;;;;;;;;;;8405547;28;20047;-92
2023/09/10 21:13:45;;;;;;;27.58;15.75;;;;;;;;;;8404447;28;20548;-92
2023/09/10 21:17:50;;;;;;;31.08;16.13;;;;;;;;;;8428914;28;20437;-90
2023/09/10 21:21:53;;;;;;;29.90;17.13;;;;;;;;;;8422444;28;20064;-92
2023/09/10 21:25:57;;;;;;;28.13;16.63;;;;;;;;;;8402304;28;20079;-91
2023/09/10 21:29:59;;;;;;;28.42;16.80;;;;;;;;;;8402717;28;20423;-90
2023/09/10 21:34:04;;;;;;;32.38;17.23;;;;;;;;;;8402301;28;20083;-94
2023/09/10 21:38:08;;;;;;;26.42;16.83;;;;;;;;;;8424724;28;20498;-93
2023/09/10 21:42:10;;;;;;;26.83;16.98;;;;;;;;;;8422111;28;20528;-90
2023/09/10 21:46:14;;;;;;;30.60;17.48;;;;;;;;;;8426605;28;20469;-92
2023/09/10 21:50:18;;;;;;;35.83;18.75;;;;;;;;;;8401768;28;20584;-94
2023/09/10 21:58:43;;;;;;;37.08;20.27;;;;;;;;;;8415679;28;20080;-93
2023/09/10 22:02:55;;;;;;;36.30;18.88;;;;;;;;;;8405631;28;20660;-93
2023/09/10 22:07:08;;;;;;;31.67;17.77;;;;;;;;;;8416769;28;20044;-93
2023/09/10 22:11:14;;;;;;;37.30;19.20;;;;;;;;;;8415640;28;20040;-90
2023/09/10 22:15:17;;;;;;;32.47;18.25;;;;;;;;;;8420952;28;20144;-93
2023/09/10 22:19:20;;;;;;;34.15;18.58;;;;;;;;;;8410581;28;20170;-94
2023/09/10 22:23:25;;;;;;;35.05;20.17;;;;;;;;;;8396285;28;20117;-92
2023/09/10 22:27:28;;;;;;;41.38;20.48;;;;;;;;;;8419659;28;20040;-94
2023/09/10 22:31:46;;;;;;;45.38;21.75;;;;;;;;;;8423666;28;20040;-93
2023/09/10 22:35:51;;;;;;;39.35;19.73;;;;;;;;;;8427588;28;20045;-92
2023/09/10 22:39:56;;;;;;;41.40;20.63;;;;;;;;;;8427417;28;20052;-91
2023/09/10 22:43:59;;;;;;;43.30;21.73;;;;;;;;;;8447833;28;20579;-91
2023/09/10 22:48:03;;;;;;;45.17;20.75;;;;;;;;;;8424293;28;20125;-91
2023/09/10 22:52:08;;;;;;;39.78;19.65;;;;;;;;;;8446025;28;20175;-94
2023/09/10 22:56:22;;;;;;;41.55;20.77;;;;;;;;;;8430636;28;20549;-93
2023/09/10 23:00:26;;;;;;;43.85;20.23;;;;;;;;;;8426327;28;20081;-95
2023/09/10 23:04:29;;;;;;;42.30;21.17;;;;;;;;;;8417650;28;20055;-94
2023/09/10 23:08:32;;;;;;;47.08;20.02;;;;;;;;;;8436760;28;20073;-92
2023/09/10 23:12:37;;;;;;;40.03;19.40;;;;;;;;;;8458193;28;20038;-94
2023/09/10 23:16:43;;;;;;;39.33;19.25;;;;;;;;;;8436248;28;20106;-94
2023/09/10 23:20:46;;;;;;;39.38;20.48;;;;;;;;;;8473172;28;20065;-94
2023/09/10 23:24:49;;;;;;;42.88;20.15;;;;;;;;;;8458848;28;20115;-93
2023/09/10 23:28:53;;;;;;;38.53;19.55;;;;;;;;;;8461993;28;20047;-92
2023/09/10 23:33:01;;;;;;;46.22;20.25;;;;;;;;;;8460717;28;20047;-92
2023/09/10 23:37:04;;;;;;;44.70;19.60;;;;;;;;;;8426664;28;20025;-90
2023/09/10 23:41:08;;;;;;;45.70;20.40;;;;;;;;;;8407873;28;20055;-93
2023/09/10 23:45:14;;;;;;;46.95;20.48;;;;;;;;;;8434383;28;20481;-90
2023/09/10 23:49:17;;;;;;;41.42;19.55;;;;;;;;;;8392181;28;20472;-90
2023/09/10 23:53:31;;;;;;;49.75;21.77;;;;;;;;;;8398151;28;20069;-92
2023/09/10 23:57:48;;;;;;;41.38;19.85;;;;;;;;;;8419164;28;20115;-93
